createdAt,value
2023-01-10T00:02:28.988Z,8.27
2023-01-10T00:05:00.615Z,8.43
2023-01-10T00:07:31.117Z,8.85
2023-01-10T00:09:58.339Z,7.32
2023-01-10T00:12:54.343Z,7.43
2023-01-10T00:15:26.769Z,7.90
2023-01-10T00:17:59.410Z,7.13
2023-01-10T00:20:31.925Z,7.35
2023-01-10T00:23:07.366Z,7.15
2023-01-10T00:25:36.140Z,7.20
2023-01-10T00:28:20.014Z,7.57
2023-01-10T00:30:56.167Z,7.15
2023-01-10T00:33:30.391Z,6.43
2023-01-10T00:36:11.777Z,7.22
2023-01-10T00:38:46.233Z,6.87
2023-01-10T00:41:35.552Z,6.90
2023-01-10T00:44:06.467Z,6.55
2023-01-10T00:46:39.091Z,6.45
2023-01-10T00:49:17.599Z,6.43
2023-01-10T00:51:52.614Z,6.77
2023-01-10T00:54:35.358Z,6.20
2023-01-10T01:58:19.689Z,7.38
2023-01-10T02:00:49.985Z,8.43
2023-01-10T02:21:03.242Z,7.00
2023-01-10T02:23:45.558Z,6.95
2023-01-10T02:26:49.603Z,7.13
2023-01-10T03:13:18.319Z,3.55
2023-01-10T04:17:45.865Z,0.10
2023-01-10T04:33:44.283Z,0.10
2023-01-10T04:36:13.717Z,0.10
2023-01-10T04:38:44.737Z,0.10
2023-01-10T04:41:17.948Z,0.10
2023-01-10T04:44:02.154Z,0.10
2023-01-10T04:46:39.904Z,0.00
2023-01-10T04:49:33.148Z,0.10
2023-01-10T04:52:22.593Z,0.00
2023-01-10T04:55:02.091Z,0.00
2023-01-10T04:57:42.224Z,0.00
2023-01-10T05:00:23.475Z,0.00
2023-01-10T05:03:05.413Z,0.10
2023-01-10T05:05:47.363Z,0.10
2023-01-10T05:08:24.399Z,0.10
2023-01-10T05:10:51.579Z,0.10
2023-01-10T05:13:34.512Z,0.10
2023-01-10T05:16:13.301Z,0.10
2023-01-10T05:18:51.855Z,0.10
2023-01-10T05:21:33.582Z,0.00
2023-01-10T05:24:00.730Z,0.10
2023-01-10T05:26:30.682Z,0.10
2023-01-10T05:29:06.019Z,0.10
2023-01-10T05:31:38.243Z,0.20
2023-01-10T05:34:13.435Z,0.13
2023-01-10T05:36:50.588Z,0.10
2023-01-10T05:39:20.650Z,0.10
2023-01-10T05:41:58.722Z,0.20
2023-01-10T05:48:43.695Z,0.10
2023-01-10T05:51:16.420Z,0.10
2023-01-10T05:53:59.659Z,0.10
2023-01-10T05:56:32.640Z,0.10
2023-01-10T05:59:17.202Z,0.10
2023-01-10T06:02:05.624Z,0.10
2023-01-10T06:04:36.202Z,0.10
2023-01-10T06:07:09.479Z,0.10
2023-01-10T06:09:40.117Z,0.10
2023-01-10T06:12:18.716Z,0.10
2023-01-10T06:14:50.565Z,0.20
2023-01-10T06:17:20.832Z,0.10
2023-01-10T06:19:56.556Z,0.10
2023-01-10T06:22:49.153Z,0.17
2023-01-10T06:25:16.521Z,0.20
2023-01-10T06:27:46.122Z,0.20
2023-01-10T06:30:27.767Z,0.30
2023-01-10T06:33:05.139Z,0.20
2023-01-10T06:35:41.051Z,0.20
2023-01-10T06:38:17.588Z,0.10
2023-01-10T06:40:49.024Z,0.20
2023-01-10T06:43:18.610Z,0.20
2023-01-10T06:45:54.337Z,0.25
2023-01-10T06:48:28.606Z,0.13
2023-01-10T06:51:25.749Z,0.20
2023-01-10T06:54:18.152Z,0.10
2023-01-10T06:56:53.570Z,0.10
2023-01-10T07:02:17.893Z,0.20
2023-01-10T07:04:58.295Z,0.10
2023-01-10T07:07:31.041Z,0.10
2023-01-10T07:09:59.833Z,0.20
2023-01-10T07:12:34.873Z,0.10
2023-01-10T07:15:12.162Z,0.20
2023-01-10T07:17:40.588Z,0.20
2023-01-10T08:11:00.030Z,0.10
2023-01-10T08:13:39.694Z,0.10
2023-01-10T08:16:31.501Z,0.10
2023-01-10T08:19:21.877Z,0.15
2023-01-10T08:22:01.000Z,0.13
2023-01-10T08:24:28.251Z,0.28
2023-01-10T08:27:08.038Z,0.20
2023-01-10T08:29:36.417Z,0.20
2023-01-10T08:32:11.749Z,0.10
2023-01-10T08:34:41.427Z,0.20
2023-01-10T08:37:16.481Z,0.10
2023-01-10T08:39:44.466Z,0.20
2023-01-10T08:42:27.147Z,0.10
2023-01-10T08:45:07.554Z,0.10
2023-01-10T08:47:44.679Z,0.10
2023-01-10T08:50:19.339Z,0.20
2023-01-10T08:52:51.368Z,0.20
2023-01-10T08:55:32.579Z,0.20
2023-01-10T08:58:07.068Z,0.20
2023-01-10T09:00:36.854Z,0.13
2023-01-10T09:03:09.721Z,0.03
2023-01-10T09:05:42.364Z,0.20
2023-01-10T09:08:12.634Z,0.20
2023-01-10T09:10:46.319Z,0.10
2023-01-10T09:13:15.782Z,0.10
2023-01-10T09:15:48.816Z,0.10
2023-01-10T09:18:21.710Z,0.10
2023-01-10T09:20:50.603Z,0.10
2023-01-10T09:23:26.024Z,0.10
2023-01-10T09:25:55.904Z,0.20
2023-01-10T09:28:26.936Z,0.20
2023-01-10T09:30:54.124Z,0.10
2023-01-10T09:34:38.545Z,0.10
2023-01-10T09:37:37.402Z,0.30
2023-01-10T09:40:29.976Z,0.20
2023-01-10T09:43:22.206Z,0.17
2023-01-10T09:46:48.227Z,0.10
2023-01-10T10:02:55.518Z,0.08
2023-01-10T10:05:28.517Z,0.30
2023-01-10T10:08:07.746Z,0.38
2023-01-10T10:10:51.639Z,0.20
2023-01-10T10:13:52.299Z,0.20
2023-01-10T10:16:51.148Z,0.20
2023-01-10T10:19:29.387Z,0.20
2023-01-10T10:22:15.747Z,0.10
2023-01-10T10:25:17.138Z,0.10
2023-01-10T10:28:20.516Z,0.10
2023-01-10T10:31:17.599Z,0.10
2023-01-10T10:34:22.513Z,0.10
2023-01-10T10:37:08.825Z,0.10
2023-01-10T10:39:57.452Z,0.10
2023-01-10T10:42:34.652Z,0.10
2023-01-10T10:45:33.863Z,0.10
2023-01-10T10:48:24.687Z,0.20
2023-01-10T10:51:37.168Z,0.08
2023-01-10T10:54:20.197Z,0.40
2023-01-10T10:57:01.832Z,0.20
2023-01-10T10:59:39.157Z,0.13
2023-01-10T11:02:29.402Z,0.13
2023-01-10T11:05:11.339Z,0.10
2023-01-10T11:07:43.949Z,0.10
2023-01-10T11:10:39.331Z,0.20
2023-01-10T11:13:18.052Z,0.20
2023-01-10T11:15:50.259Z,0.10
2023-01-10T11:18:35.869Z,0.10
2023-01-10T11:21:26.871Z,0.10
2023-01-10T11:23:54.407Z,0.10
2023-01-10T11:26:40.639Z,0.10
2023-01-10T11:29:26.320Z,0.10
2023-01-10T11:35:04.030Z,0.10
2023-01-10T11:37:38.102Z,0.10
2023-01-10T11:40:21.667Z,0.10
2023-01-10T11:42:59.956Z,0.10
2023-01-10T11:58:43.193Z,0.10
2023-01-10T12:01:38.033Z,0.10
2023-01-10T12:04:13.468Z,0.15
2023-01-10T12:07:09.261Z,0.10
2023-01-10T12:09:47.011Z,0.00
2023-01-10T12:12:28.539Z,0.10
2023-01-10T12:15:22.056Z,0.10
2023-01-10T12:17:54.124Z,0.03
2023-01-10T12:20:24.396Z,0.10
2023-01-10T12:23:00.433Z,0.10
2023-01-10T12:26:11.120Z,0.10
2023-01-10T12:29:10.610Z,0.10
2023-01-10T12:31:42.772Z,0.10
2023-01-10T12:34:52.000Z,0.10
2023-01-10T12:37:26.390Z,0.10
2023-01-10T12:40:06.047Z,0.10
2023-01-10T12:43:21.842Z,0.00
2023-01-10T12:46:12.781Z,0.00
2023-01-10T12:49:06.430Z,0.10
2023-01-10T12:51:42.826Z,0.03
2023-01-10T12:54:24.857Z,0.10
2023-01-10T12:56:58.380Z,0.10
2023-01-10T12:59:41.639Z,0.10
2023-01-10T13:06:48.635Z,0.10
2023-01-10T13:09:29.030Z,0.10
2023-01-10T13:12:08.345Z,0.20
2023-01-10T13:15:14.981Z,0.10
2023-01-10T13:18:36.004Z,0.10
2023-01-10T13:21:25.910Z,0.10
2023-01-10T13:23:57.390Z,0.13
2023-01-10T13:26:33.186Z,0.10
2023-01-10T13:29:06.788Z,0.10
2023-01-10T13:31:35.766Z,0.10
2023-01-10T13:34:20.378Z,0.10
2023-01-10T13:37:06.331Z,0.10
2023-01-10T13:39:49.253Z,0.20
2023-01-10T13:42:48.147Z,0.10
2023-01-10T13:45:48.178Z,0.10
2023-01-10T13:48:38.879Z,0.10
2023-01-10T13:51:16.312Z,0.10
2023-01-10T13:54:06.598Z,0.20
2023-01-10T13:56:46.814Z,0.10
2023-01-10T13:59:52.467Z,0.10
2023-01-10T14:02:33.468Z,0.20
2023-01-10T14:05:08.879Z,0.10
2023-01-10T14:08:01.627Z,0.20
2023-01-10T14:10:42.824Z,0.10
2023-01-10T14:13:31.731Z,0.15
2023-01-10T14:16:25.990Z,0.10
2023-01-10T14:18:58.638Z,0.10
2023-01-10T14:21:37.205Z,0.00
2023-01-10T14:24:24.871Z,0.10
2023-01-10T14:27:00.888Z,0.10
2023-01-10T14:29:36.556Z,0.32
2023-01-10T14:32:13.506Z,0.05
2023-01-10T15:49:36.634Z,0.10
2023-01-10T15:52:25.140Z,0.20
2023-01-10T15:54:53.561Z,0.20
2023-01-10T16:00:59.720Z,0.25
2023-01-10T16:03:36.797Z,0.30
2023-01-10T16:06:22.607Z,0.20
2023-01-10T16:08:59.546Z,0.20
2023-01-10T16:12:05.841Z,0.20
2023-01-10T16:14:39.596Z,0.10
2023-01-10T16:17:15.710Z,0.20
2023-01-10T16:19:47.031Z,0.20
2023-01-10T16:22:25.292Z,0.20
2023-01-10T16:24:55.514Z,0.20
2023-01-10T16:27:36.039Z,0.13
2023-01-10T16:30:06.349Z,0.20
2023-01-10T16:32:36.234Z,0.25
2023-01-10T16:35:22.125Z,0.20
2023-01-10T16:37:49.720Z,0.33
2023-01-10T16:40:20.876Z,0.30
2023-01-10T16:43:14.380Z,0.30
2023-01-10T16:45:56.849Z,0.20
2023-01-10T16:48:28.703Z,0.20
2023-01-10T16:51:19.914Z,0.20
2023-01-10T16:53:50.582Z,0.30
2023-01-10T17:13:47.020Z,0.20
2023-01-10T17:16:22.419Z,0.20
2023-01-10T20:12:57.627Z,1.50
2023-01-10T20:20:43.010Z,1.20
2023-01-10T20:26:49.794Z,1.23
2023-01-10T20:29:20.399Z,0.70
2023-01-10T20:31:57.345Z,1.30
2023-01-10T20:34:35.430Z,0.80
2023-01-10T20:37:05.591Z,0.97
2023-01-10T20:39:33.216Z,1.10
2023-01-10T20:44:54.170Z,0.65
2023-01-10T20:47:23.572Z,0.63
2023-01-10T20:49:51.909Z,0.90
2023-01-10T20:52:23.966Z,1.20
2023-01-10T20:54:51.479Z,0.77
2023-01-10T21:06:06.691Z,0.80
2023-01-10T21:08:40.831Z,1.30
2023-01-10T21:11:14.409Z,1.63
2023-01-10T21:13:46.916Z,1.52
2023-01-10T21:16:21.959Z,1.35
2023-01-10T21:18:59.244Z,0.40
2023-01-10T21:21:31.764Z,1.20
2023-01-10T21:24:07.103Z,1.48
2023-01-10T21:26:42.680Z,0.98
2023-01-10T21:29:13.316Z,0.82
2023-01-10T21:31:54.681Z,1.07
2023-01-10T21:34:23.250Z,0.82
2023-01-10T21:36:52.477Z,0.75
2023-01-10T21:39:19.974Z,1.33
2023-01-10T21:42:14.390Z,0.77
2023-01-10T21:44:43.845Z,0.50
2023-01-10T21:47:23.230Z,0.80
2023-01-10T21:49:55.919Z,1.00
2023-01-10T21:52:25.982Z,0.40
2023-01-10T21:54:57.678Z,0.63
2023-01-10T21:57:30.829Z,0.80
2023-01-10T22:00:15.231Z,0.70
2023-01-10T22:02:51.919Z,0.50
2023-01-10T22:05:19.164Z,1.00
2023-01-10T22:07:51.130Z,0.80
2023-01-10T22:10:19.855Z,0.32
2023-01-10T22:12:52.555Z,0.80
2023-01-10T22:15:22.355Z,0.80
2023-01-10T22:18:03.172Z,1.00
2023-01-10T22:20:36.280Z,0.50
2023-01-10T22:23:07.872Z,0.73
2023-01-10T22:25:43.985Z,0.53
2023-01-10T22:28:25.529Z,0.90
2023-01-10T22:30:58.556Z,0.73
2023-01-10T22:33:33.863Z,0.63
2023-01-10T22:36:29.430Z,0.33
2023-01-10T22:39:02.725Z,0.65
2023-01-10T22:41:45.347Z,0.75
2023-01-10T22:44:32.807Z,0.60
2023-01-10T22:47:05.473Z,0.70
2023-01-10T22:49:59.799Z,0.43
2023-01-10T22:52:28.153Z,0.47
2023-01-10T22:54:58.535Z,1.10
2023-01-10T22:57:47.091Z,0.77
2023-01-10T23:00:21.488Z,0.57
2023-01-10T23:03:00.103Z,0.37
2023-01-10T23:05:40.506Z,0.95
2023-01-10T23:08:17.900Z,0.88
2023-01-10T23:10:58.665Z,1.13
2023-01-10T23:13:47.149Z,0.43
2023-01-10T23:16:22.322Z,0.68
2023-01-10T23:18:52.090Z,0.98
2023-01-10T23:21:28.182Z,0.82
2023-01-10T23:23:57.047Z,0.82
2023-01-10T23:26:27.180Z,0.70
2023-01-10T23:28:54.483Z,0.93
2023-01-10T23:31:23.313Z,0.70
2023-01-10T23:33:59.358Z,0.52
2023-01-10T23:36:37.884Z,0.75
2023-01-10T23:39:13.885Z,0.70
2023-01-10T23:44:41.754Z,0.52
2023-01-10T23:47:17.574Z,0.88
2023-01-10T23:49:53.433Z,0.93
2023-01-10T23:52:29.364Z,1.00
2023-01-10T23:59:16.983Z,0.50
